createdAt,value
2019-05-10T00:00:17.858Z,78.01
2019-05-10T00:03:02.692Z,77.55
2019-05-10T00:05:48.146Z,78.58
2019-05-10T00:08:33.190Z,78.17
2019-05-10T00:11:07.303Z,78.26
2019-05-10T00:13:43.806Z,78.03
2019-05-10T00:16:11.437Z,77.85
2019-05-10T00:18:37.559Z,77.78
2019-05-10T00:21:04.090Z,78.28
2019-05-10T00:23:30.264Z,77.79
2019-05-10T00:25:56.489Z,78.21
2019-05-10T00:28:22.728Z,78.16
2019-05-10T00:30:48.996Z,78.16
2019-05-10T00:33:15.190Z,78.03
2019-05-10T00:35:42.397Z,77.90
2019-05-10T00:38:08.576Z,77.96
2019-05-10T00:40:34.831Z,78.07
2019-05-10T00:43:00.998Z,78.08
2019-05-10T00:45:27.235Z,78.31
2019-05-10T00:47:53.424Z,78.25
2019-05-10T00:50:19.677Z,78.11
2019-05-10T00:52:45.773Z,78.03
2019-05-10T00:55:18.980Z,78.39
2019-05-10T00:57:40.279Z,78.53
2019-05-10T01:00:07.093Z,78.75
2019-05-10T01:02:33.358Z,78.51
2019-05-10T01:04:59.521Z,78.79
2019-05-10T01:07:25.779Z,78.26
2019-05-10T01:09:52.058Z,78.60
2019-05-10T01:12:18.323Z,78.47
2019-05-10T01:14:44.498Z,78.34
2019-05-10T01:17:10.697Z,78.71
2019-05-10T01:19:37.028Z,78.97
2019-05-10T01:22:03.298Z,79.06
2019-05-10T01:24:29.504Z,79.07
2019-05-10T01:26:55.621Z,78.45
2019-05-10T01:29:21.837Z,78.32
2019-05-10T01:31:47.935Z,78.65
2019-05-10T01:34:14.299Z,78.90
2019-05-10T01:36:40.404Z,78.69
2019-05-10T01:39:06.568Z,79.04
2019-05-10T01:41:32.735Z,78.71
2019-05-10T01:43:58.880Z,78.62
2019-05-10T01:46:25.009Z,78.74
2019-05-10T01:48:51.207Z,78.79
2019-05-10T01:51:17.376Z,78.96
2019-05-10T01:53:43.723Z,78.29
2019-05-10T01:56:09.938Z,78.67
2019-05-10T01:58:36.100Z,77.95
2019-05-10T02:01:04.962Z,78.29
2019-05-10T02:03:31.086Z,78.52
2019-05-10T02:05:57.420Z,78.43
2019-05-10T02:08:23.691Z,78.30
2019-05-10T02:10:51.084Z,78.32
2019-05-10T02:13:17.383Z,77.51
2019-05-10T02:15:43.554Z,78.19
2019-05-10T02:18:09.887Z,78.25
2019-05-10T02:20:36.063Z,77.70
2019-05-10T02:23:02.403Z,77.47
2019-05-10T02:25:28.603Z,77.89
2019-05-10T02:27:54.726Z,78.03
2019-05-10T02:30:21.167Z,78.13
2019-05-10T02:32:47.313Z,77.39
2019-05-10T02:35:15.739Z,78.16
2019-05-10T02:37:42.018Z,77.43
2019-05-10T02:40:08.469Z,77.95
2019-05-10T02:42:34.783Z,78.30
2019-05-10T02:45:01.166Z,78.58
2019-05-10T02:47:27.369Z,78.28
2019-05-10T02:49:53.481Z,78.20
2019-05-10T02:52:19.746Z,78.25
2019-05-10T02:54:45.884Z,77.95
2019-05-10T02:57:12.636Z,77.70
2019-05-10T02:59:40.114Z,77.50
2019-05-10T03:02:06.404Z,77.99
2019-05-10T03:04:34.869Z,78.04
2019-05-10T03:07:02.224Z,78.87
2019-05-10T03:09:32.196Z,78.43
2019-05-10T03:12:02.531Z,77.96
2019-05-10T03:14:32.623Z,78.00
2019-05-10T03:17:02.466Z,77.64
2019-05-10T03:19:30.231Z,78.09
2019-05-10T03:22:04.782Z,77.89
2019-05-10T03:24:32.188Z,78.02
2019-05-10T03:26:58.932Z,78.10
2019-05-10T03:29:25.478Z,77.91
2019-05-10T03:31:52.084Z,77.80
2019-05-10T03:34:18.203Z,77.81
2019-05-10T03:36:44.426Z,78.26
2019-05-10T03:39:10.534Z,77.97
2019-05-10T03:41:36.946Z,78.25
2019-05-10T03:44:03.574Z,78.28
2019-05-10T03:46:29.790Z,78.24
2019-05-10T03:48:56.021Z,78.10
2019-05-10T03:51:22.131Z,78.12
2019-05-10T03:53:48.367Z,78.16
2019-05-10T03:56:14.477Z,77.60
2019-05-10T03:58:40.677Z,78.19
2019-05-10T04:01:06.782Z,78.25
2019-05-10T04:03:32.995Z,78.18
2019-05-10T04:05:59.317Z,79.05
2019-05-10T04:08:25.590Z,79.11
2019-05-10T04:10:51.968Z,78.80
2019-05-10T04:13:18.230Z,78.43
2019-05-10T04:15:45.742Z,78.83
2019-05-10T04:18:11.902Z,78.17
2019-05-10T04:20:38.048Z,78.05
2019-05-10T04:23:04.206Z,78.16
2019-05-10T04:25:30.361Z,78.59
2019-05-10T04:27:56.538Z,78.03
2019-05-10T04:30:22.823Z,78.02
2019-05-10T04:32:49.047Z,77.89
2019-05-10T04:35:15.162Z,77.85
2019-05-10T04:37:41.375Z,77.94
2019-05-10T04:40:08.704Z,77.98
2019-05-10T04:42:34.905Z,77.56
2019-05-10T04:45:01.413Z,76.95
2019-05-10T04:47:27.633Z,77.78
2019-05-10T04:49:53.810Z,77.75
2019-05-10T04:52:21.091Z,77.74
2019-05-10T04:54:48.438Z,78.18
2019-05-10T04:57:14.589Z,77.88
2019-05-10T04:59:40.752Z,77.90
2019-05-10T05:02:06.919Z,78.37
2019-05-10T05:04:33.113Z,77.92
2019-05-10T05:06:59.398Z,77.72
2019-05-10T05:09:26.597Z,77.81
2019-05-10T05:11:52.777Z,78.23
2019-05-10T05:14:19.141Z,77.44
2019-05-10T05:16:45.404Z,77.63
2019-05-10T05:19:11.662Z,77.86
2019-05-10T05:21:37.884Z,77.56
2019-05-10T05:24:03.981Z,77.50
2019-05-10T05:26:30.184Z,77.51
2019-05-10T05:28:56.288Z,77.79
2019-05-10T05:31:22.546Z,77.52
2019-05-10T05:33:48.801Z,78.11
2019-05-10T05:36:15.118Z,77.39
2019-05-10T05:38:47.127Z,77.63
2019-05-10T05:41:09.438Z,77.48
2019-05-10T05:43:35.646Z,78.19
2019-05-10T05:46:01.854Z,78.13
2019-05-10T05:48:39.783Z,77.85
2019-05-10T05:50:56.368Z,78.04
2019-05-10T05:53:22.811Z,77.84
2019-05-10T05:55:49.025Z,77.91
2019-05-10T05:58:25.600Z,77.92
2019-05-10T06:00:46.808Z,78.14
2019-05-10T06:03:19.309Z,77.42
2019-05-10T06:05:41.252Z,77.58
2019-05-10T06:08:21.283Z,77.94
2019-05-10T06:10:35.677Z,78.33
2019-05-10T06:13:01.787Z,78.57
2019-05-10T06:15:29.197Z,78.91
2019-05-10T06:17:57.589Z,79.11
2019-05-10T06:20:24.290Z,78.46
2019-05-10T06:23:05.545Z,78.72
2019-05-10T06:25:18.739Z,78.40
2019-05-10T06:27:44.995Z,78.42
2019-05-10T06:30:11.377Z,77.85
2019-05-10T06:32:37.534Z,78.19
2019-05-10T06:35:06.667Z,78.36
2019-05-10T06:37:33.141Z,77.39
2019-05-10T06:39:59.304Z,77.59
2019-05-10T06:42:28.733Z,77.39
2019-05-10T06:44:53.522Z,76.93
2019-05-10T06:47:21.888Z,77.42
2019-05-10T06:49:52.148Z,76.93
2019-05-10T06:52:16.529Z,77.20
2019-05-10T06:54:42.831Z,77.32
2019-05-10T06:57:11.290Z,77.15
2019-05-10T06:59:37.078Z,76.75
2019-05-10T07:02:03.341Z,76.52
2019-05-10T07:04:34.515Z,76.27
2019-05-10T07:06:57.579Z,76.14
2019-05-10T07:09:23.785Z,76.75
2019-05-10T07:11:50.004Z,75.81
2019-05-10T07:14:16.243Z,75.31
2019-05-10T07:16:42.491Z,75.76
2019-05-10T07:19:08.615Z,75.73
2019-05-10T07:21:38.901Z,74.64
2019-05-10T07:24:03.005Z,73.89
2019-05-10T07:26:29.353Z,73.06
2019-05-10T07:28:57.627Z,72.27
2019-05-10T07:31:24.006Z,71.96
2019-05-10T07:33:50.313Z,71.74
2019-05-10T07:36:20.916Z,71.46
2019-05-10T07:38:44.742Z,71.21
2019-05-10T07:41:11.048Z,70.20
2019-05-10T07:43:37.695Z,69.90
2019-05-10T07:46:08.943Z,70.28
2019-05-10T07:48:32.106Z,69.77
2019-05-10T07:50:58.285Z,68.69
2019-05-10T07:53:25.280Z,68.41
2019-05-10T07:55:51.652Z,68.18
2019-05-10T07:58:17.843Z,68.01
2019-05-10T08:00:46.491Z,67.11
2019-05-10T08:03:16.835Z,66.20
2019-05-10T08:05:40.334Z,65.66
2019-05-10T08:08:06.776Z,66.10
2019-05-10T08:10:33.159Z,65.74
2019-05-10T08:13:03.224Z,64.68
2019-05-10T08:15:30.516Z,65.32
2019-05-10T08:17:55.591Z,65.73
2019-05-10T08:20:41.032Z,65.17
2019-05-10T08:22:49.822Z,64.68
2019-05-10T08:25:15.927Z,65.07
2019-05-10T08:27:50.066Z,63.37
2019-05-10T08:30:22.620Z,62.19
2019-05-10T08:32:38.854Z,60.66
2019-05-10T08:35:16.365Z,60.72
2019-05-10T08:37:37.792Z,60.49
2019-05-10T08:40:04.108Z,61.86
2019-05-10T08:42:43.845Z,61.31
2019-05-10T08:45:05.474Z,61.47
2019-05-10T08:47:29.527Z,60.33
2019-05-10T08:50:10.550Z,59.43
2019-05-10T08:52:30.592Z,59.23
2019-05-10T08:54:54.935Z,59.06
2019-05-10T08:57:22.139Z,58.09
2019-05-10T08:59:54.484Z,57.83
2019-05-10T09:02:23.108Z,56.90
2019-05-10T09:04:50.200Z,56.42
2019-05-10T09:07:13.768Z,55.34
2019-05-10T09:09:45.788Z,56.50
2019-05-10T09:12:09.384Z,55.68
2019-05-10T09:14:36.230Z,56.59
2019-05-10T09:17:04.346Z,56.26
2019-05-10T09:19:37.350Z,55.05
2019-05-10T09:21:58.663Z,53.18
2019-05-10T09:24:24.942Z,52.85
2019-05-10T09:26:54.770Z,52.65
2019-05-10T09:29:19.240Z,50.89
2019-05-10T09:31:50.463Z,50.24
2019-05-10T09:34:13.470Z,48.97
2019-05-10T09:36:42.933Z,48.83
2019-05-10T09:39:09.187Z,48.15
2019-05-10T09:41:38.261Z,48.71
2019-05-10T09:44:04.250Z,48.66
2019-05-10T09:46:32.436Z,50.05
2019-05-10T09:49:04.812Z,49.31
2019-05-10T09:51:30.235Z,50.07
2019-05-10T09:53:54.806Z,49.35
2019-05-10T09:56:20.988Z,50.18
2019-05-10T09:58:48.337Z,49.41
2019-05-10T10:01:21.242Z,49.17
2019-05-10T10:03:44.866Z,48.29
2019-05-10T10:06:11.582Z,48.38
2019-05-10T10:08:38.641Z,48.04
2019-05-10T10:11:13.500Z,49.18
2019-05-10T10:13:40.864Z,48.82
2019-05-10T10:16:04.045Z,49.68
2019-05-10T10:18:31.164Z,48.54
2019-05-10T10:20:57.581Z,48.28
2019-05-10T10:23:29.912Z,48.95
2019-05-10T10:25:53.447Z,47.97
2019-05-10T10:28:22.558Z,48.56
2019-05-10T10:30:50.417Z,48.58
2019-05-10T10:33:22.479Z,47.62
2019-05-10T10:35:47.906Z,47.84
2019-05-10T10:38:13.449Z,46.76
2019-05-10T10:40:44.516Z,46.77
2019-05-10T10:43:07.925Z,47.72
2019-05-10T10:45:34.131Z,45.54
2019-05-10T10:48:02.561Z,44.63
2019-05-10T10:50:29.065Z,45.48
2019-05-10T10:52:57.507Z,43.69
2019-05-10T10:55:23.733Z,41.07
2019-05-10T10:57:49.957Z,39.92
2019-05-10T11:00:23.265Z,40.65
2019-05-10T11:02:51.870Z,39.63
2019-05-10T11:05:16.307Z,41.38
2019-05-10T11:07:47.303Z,43.24
2019-05-10T11:10:16.180Z,44.05
2019-05-10T11:12:41.261Z,45.10
2019-05-10T11:15:07.353Z,44.69
2019-05-10T11:17:33.610Z,44.57
2019-05-10T11:20:00.610Z,44.76
2019-05-10T11:22:27.453Z,44.01
2019-05-10T11:25:03.080Z,39.25
2019-05-10T11:27:22.562Z,37.81
2019-05-10T11:29:52.756Z,38.45
2019-05-10T11:32:17.183Z,38.38
2019-05-10T11:34:43.519Z,40.26
2019-05-10T11:37:09.774Z,40.78
2019-05-10T11:39:41.956Z,40.45
2019-05-10T11:42:07.157Z,40.85
2019-05-10T11:44:32.252Z,39.64
2019-05-10T11:46:58.510Z,39.82
2019-05-10T11:49:24.680Z,40.35
2019-05-10T11:51:54.859Z,38.77
2019-05-10T11:54:21.562Z,38.69
2019-05-10T11:56:47.990Z,38.59
2019-05-10T11:59:16.459Z,38.88
2019-05-10T12:01:42.300Z,40.04
2019-05-10T12:04:13.152Z,40.87
2019-05-10T12:06:41.287Z,41.30
2019-05-10T12:09:05.661Z,42.06
2019-05-10T12:11:33.929Z,43.11
2019-05-10T12:14:02.381Z,43.29
2019-05-10T12:16:28.003Z,43.73
2019-05-10T12:21:22.390Z,44.90
2019-05-10T12:23:51.940Z,45.06
2019-05-10T12:26:36.003Z,44.54
2019-05-10T12:27:13.979Z,44.69
2019-05-10T12:28:45.173Z,44.76
2019-05-10T12:31:15.093Z,44.36
2019-05-10T12:33:44.557Z,44.04
2019-05-10T12:36:13.090Z,43.58
2019-05-10T12:38:38.058Z,44.05
2019-05-10T12:41:05.510Z,44.90
2019-05-10T12:43:32.814Z,45.57
2019-05-10T12:45:59.006Z,45.29
2019-05-10T12:48:26.317Z,44.70
2019-05-10T12:50:57.942Z,44.09
2019-05-10T12:53:22.274Z,42.78
2019-05-10T12:55:48.541Z,39.59
2019-05-10T12:58:14.724Z,39.60
2019-05-10T13:00:40.913Z,40.88
2019-05-10T13:03:12.803Z,41.96
2019-05-10T13:05:51.091Z,42.58
2019-05-10T13:08:03.321Z,42.38
2019-05-10T13:10:29.660Z,42.08
2019-05-10T13:12:55.826Z,42.99
2019-05-10T13:15:24.638Z,43.67
2019-05-10T13:17:53.090Z,44.57
2019-05-10T13:20:19.743Z,45.14
2019-05-10T13:22:45.854Z,44.94
2019-05-10T13:25:12.475Z,45.60
2019-05-10T13:27:38.854Z,45.92
2019-05-10T13:30:06.850Z,46.33
2019-05-10T13:32:33.059Z,47.00
2019-05-10T13:34:59.297Z,47.24
2019-05-10T13:37:25.516Z,47.18
2019-05-10T13:39:51.744Z,47.18
2019-05-10T13:42:18.048Z,47.43
2019-05-10T13:44:44.601Z,47.77
2019-05-10T13:47:11.050Z,47.25
2019-05-10T13:49:37.351Z,47.62
2019-05-10T13:52:03.460Z,48.54
2019-05-10T13:54:31.221Z,49.88
2019-05-10T13:56:57.713Z,51.60
2019-05-10T13:59:24.193Z,52.14
2019-05-10T14:01:51.500Z,52.14
2019-05-10T14:04:17.966Z,51.57
2019-05-10T14:06:44.250Z,50.73
2019-05-10T14:09:10.659Z,50.18
2019-05-10T14:11:40.363Z,50.42
2019-05-10T14:14:05.104Z,49.39
2019-05-10T14:16:31.263Z,47.88
2019-05-10T14:18:57.405Z,46.93
2019-05-10T14:21:23.814Z,47.69
2019-05-10T14:23:49.966Z,47.94
2019-05-10T14:26:18.236Z,47.07
2019-05-10T14:28:47.385Z,47.02
2019-05-10T14:31:12.497Z,46.97
2019-05-10T14:33:38.736Z,46.95
2019-05-10T14:36:04.890Z,46.66
2019-05-10T14:38:31.088Z,47.25
2019-05-10T14:40:57.274Z,47.23
2019-05-10T14:43:23.527Z,47.36
2019-05-10T14:45:49.642Z,47.03
2019-05-10T14:48:15.865Z,46.54
2019-05-10T14:50:46.195Z,47.25
2019-05-10T14:53:10.269Z,45.90
2019-05-10T14:55:36.996Z,45.45
2019-05-10T14:58:03.531Z,45.70
2019-05-10T15:00:29.772Z,45.77
2019-05-10T15:02:56.693Z,46.52
2019-05-10T15:05:24.218Z,46.62
2019-05-10T15:07:51.224Z,47.12
2019-05-10T15:10:17.803Z,47.09
2019-05-10T15:12:43.980Z,48.04
2019-05-10T15:15:10.701Z,48.03
2019-05-10T15:17:36.813Z,47.16
2019-05-10T15:20:05.677Z,46.99
2019-05-10T15:22:31.792Z,47.06
2019-05-10T15:24:58.062Z,46.35
2019-05-10T15:27:24.202Z,46.13
2019-05-10T15:29:50.408Z,45.45
2019-05-10T15:32:16.522Z,46.19
2019-05-10T15:34:42.784Z,46.63
2019-05-10T15:37:10.575Z,46.70
2019-05-10T15:39:37.012Z,47.13
2019-05-10T15:42:03.383Z,47.02
2019-05-10T15:44:31.390Z,46.86
2019-05-10T15:46:57.748Z,46.94
2019-05-10T15:49:25.062Z,47.46
2019-05-10T15:51:56.850Z,48.14
2019-05-10T15:54:19.272Z,48.11
2019-05-10T15:56:45.541Z,48.00
2019-05-10T15:59:12.924Z,47.83
2019-05-10T16:01:39.913Z,47.90
2019-05-10T16:04:06.173Z,48.20
2019-05-10T16:06:37.558Z,48.29
2019-05-10T16:09:02.810Z,48.42
2019-05-10T16:11:29.812Z,48.85
2019-05-10T16:14:00.121Z,49.05
2019-05-10T16:16:24.363Z,49.52
2019-05-10T16:18:50.529Z,49.21
2019-05-10T16:21:16.903Z,49.52
2019-05-10T16:23:46.807Z,49.67
2019-05-10T16:26:11.808Z,50.00
2019-05-10T16:28:38.009Z,49.87
2019-05-10T16:31:04.388Z,49.83
2019-05-10T16:33:30.626Z,49.73
2019-05-10T16:35:56.874Z,50.34
2019-05-10T16:38:23.269Z,50.02
2019-05-10T16:40:58.348Z,49.62
2019-05-10T16:43:23.867Z,50.00
2019-05-10T16:45:46.488Z,50.14
2019-05-10T16:48:12.639Z,50.01
2019-05-10T16:50:38.843Z,50.53
2019-05-10T16:53:07.973Z,50.82
2019-05-10T16:55:35.679Z,51.08
2019-05-10T16:58:01.651Z,51.44
2019-05-10T17:00:28.124Z,51.90
2019-05-10T17:02:54.284Z,51.94
2019-05-10T17:05:20.552Z,52.32
2019-05-10T17:07:46.718Z,52.49
2019-05-10T17:10:13.223Z,52.75
2019-05-10T17:12:39.418Z,53.03
2019-05-10T17:15:05.773Z,53.20
2019-05-10T17:17:37.091Z,53.33
2019-05-10T17:20:00.701Z,53.47
2019-05-10T17:22:26.959Z,53.37
2019-05-10T17:24:56.763Z,53.62
2019-05-10T17:27:21.416Z,53.35
2019-05-10T17:29:49.826Z,53.18
2019-05-10T17:32:18.533Z,53.03
2019-05-10T17:34:44.057Z,53.13
2019-05-10T17:37:11.281Z,52.69
2019-05-10T17:39:37.479Z,52.84
2019-05-10T17:42:05.049Z,52.73
2019-05-10T17:44:31.418Z,53.20
2019-05-10T17:46:57.634Z,53.28
2019-05-10T17:49:23.975Z,53.13
2019-05-10T17:51:50.345Z,52.85
2019-05-10T17:54:17.636Z,52.95
2019-05-10T17:56:44.042Z,53.28
2019-05-10T17:59:12.030Z,53.49
2019-05-10T18:01:38.711Z,53.73
2019-05-10T18:04:05.005Z,53.76
2019-05-10T18:06:31.176Z,54.08
2019-05-10T18:08:57.476Z,54.19
2019-05-10T18:11:23.877Z,54.61
2019-05-10T18:13:50.163Z,55.83
2019-05-10T18:16:17.397Z,56.81
2019-05-10T18:18:47.192Z,57.49
2019-05-10T18:21:15.739Z,57.78
2019-05-10T18:23:40.041Z,58.47
2019-05-10T18:26:06.327Z,59.23
2019-05-10T18:28:32.537Z,60.32
2019-05-10T18:30:58.715Z,60.32
2019-05-10T18:33:26.154Z,60.52
2019-05-10T18:35:54.504Z,60.61
2019-05-10T18:38:20.423Z,61.79
2019-05-10T18:40:46.695Z,62.32
2019-05-10T18:43:13.025Z,62.72
2019-05-10T18:45:39.210Z,63.37
2019-05-10T18:48:05.479Z,63.84
2019-05-10T18:50:31.628Z,64.47
2019-05-10T18:52:57.866Z,64.84
2019-05-10T18:55:24.252Z,65.13
2019-05-10T18:57:52.588Z,65.28
2019-05-10T19:00:23.225Z,65.65
2019-05-10T19:02:49.654Z,66.22
2019-05-10T19:05:15.928Z,66.43
2019-05-10T19:07:42.333Z,65.85
2019-05-10T19:10:08.958Z,66.11
2019-05-10T19:12:35.894Z,66.15
2019-05-10T19:15:08.999Z,66.55
2019-05-10T19:17:33.514Z,66.84
2019-05-10T19:19:59.816Z,66.92
2019-05-10T19:22:27.095Z,67.09
2019-05-10T19:24:56.697Z,67.37
2019-05-10T19:27:24.881Z,67.20
2019-05-10T19:29:50.531Z,67.06
2019-05-10T19:32:18.030Z,67.02
2019-05-10T19:34:48.281Z,66.76
2019-05-10T19:37:26.853Z,67.03
2019-05-10T19:39:40.996Z,66.84
2019-05-10T19:42:07.313Z,66.75
2019-05-10T19:44:34.803Z,66.92
2019-05-10T19:47:01.952Z,66.88
2019-05-10T19:49:28.143Z,66.70
2019-05-10T19:51:54.496Z,67.13
2019-05-10T19:54:21.321Z,66.86
2019-05-10T19:56:47.776Z,67.10
2019-05-10T19:59:13.884Z,67.86
2019-05-10T20:01:40.222Z,68.06
2019-05-10T20:04:09.352Z,67.87
2019-05-10T20:06:34.429Z,68.09
2019-05-10T20:09:00.619Z,68.54
2019-05-10T20:11:27.043Z,69.07
2019-05-10T20:13:53.199Z,68.10
2019-05-10T20:16:19.431Z,68.10
2019-05-10T20:18:45.728Z,67.45
2019-05-10T20:21:11.978Z,68.80
2019-05-10T20:23:38.221Z,71.54
2019-05-10T20:26:04.385Z,73.23
2019-05-10T20:28:30.608Z,74.28
2019-05-10T20:30:56.720Z,74.98
2019-05-10T20:33:22.937Z,75.37
2019-05-10T20:35:49.047Z,75.84
2019-05-10T20:38:15.377Z,76.00
2019-05-10T20:40:41.532Z,76.19
2019-05-10T20:43:07.748Z,76.26
2019-05-10T20:45:34.096Z,76.46
2019-05-10T20:48:00.318Z,76.76
2019-05-10T20:50:26.431Z,76.65
2019-05-10T20:52:55.875Z,76.85
2019-05-10T20:55:22.002Z,77.45
2019-05-10T20:57:48.224Z,77.59
2019-05-10T21:00:14.651Z,77.58
2019-05-10T21:02:40.882Z,77.43
2019-05-10T21:05:07.815Z,77.18
2019-05-10T21:07:34.043Z,77.52
2019-05-10T21:10:00.283Z,77.33
2019-05-10T21:12:26.603Z,77.57
2019-05-10T21:14:52.743Z,77.35
2019-05-10T21:17:18.983Z,77.64
2019-05-10T21:19:45.160Z,77.34
2019-05-10T21:22:11.452Z,77.36
2019-05-10T21:24:37.665Z,77.42
2019-05-10T21:27:03.955Z,77.58
2019-05-10T21:29:30.153Z,77.69
2019-05-10T21:31:56.327Z,78.04
2019-05-10T21:34:22.486Z,78.15
2019-05-10T21:36:48.715Z,78.41
2019-05-10T21:39:15.867Z,78.41
2019-05-10T21:41:42.038Z,78.79
2019-05-10T21:44:08.210Z,78.60
2019-05-10T21:46:35.285Z,78.36
2019-05-10T21:49:01.390Z,79.08
2019-05-10T21:51:27.624Z,78.75
2019-05-10T21:53:53.747Z,78.65
2019-05-10T21:56:19.957Z,78.50
2019-05-10T21:58:46.130Z,78.42
2019-05-10T22:01:12.476Z,78.54
2019-05-10T22:03:38.830Z,78.29
2019-05-10T22:06:05.000Z,78.49
2019-05-10T22:08:31.266Z,78.54
2019-05-10T22:10:57.642Z,78.72
2019-05-10T22:13:23.987Z,79.07
2019-05-10T22:15:50.296Z,79.36
2019-05-10T22:18:16.450Z,79.86
2019-05-10T22:20:42.630Z,80.13
2019-05-10T22:23:08.799Z,80.19
2019-05-10T22:25:35.025Z,80.25
2019-05-10T22:28:01.252Z,80.33
2019-05-10T22:30:27.575Z,80.72
2019-05-10T22:32:53.887Z,81.20
2019-05-10T22:35:20.012Z,81.35
2019-05-10T22:37:46.235Z,81.75
2019-05-10T22:40:12.685Z,81.86
2019-05-10T22:42:38.944Z,81.72
2019-05-10T22:45:05.357Z,82.27
2019-05-10T22:47:31.465Z,82.33
2019-05-10T22:49:57.776Z,82.58
2019-05-10T22:52:24.034Z,82.43
2019-05-10T22:54:50.271Z,82.80
2019-05-10T22:57:16.443Z,82.52
2019-05-10T22:59:42.700Z,82.32
2019-05-10T23:02:08.971Z,82.59
2019-05-10T23:04:35.181Z,82.53
2019-05-10T23:07:01.292Z,82.76
2019-05-10T23:09:27.508Z,82.93
2019-05-10T23:11:53.672Z,82.78
2019-05-10T23:14:19.954Z,82.63
2019-05-10T23:16:46.234Z,82.89
2019-05-10T23:19:12.491Z,82.63
2019-05-10T23:21:38.711Z,82.49
2019-05-10T23:24:07.512Z,82.17
2019-05-10T23:26:34.719Z,82.28
2019-05-10T23:29:00.818Z,82.06
2019-05-10T23:31:27.013Z,81.91
2019-05-10T23:33:53.114Z,81.67
2019-05-10T23:36:19.353Z,81.34
2019-05-10T23:38:45.851Z,81.17
2019-05-10T23:41:12.089Z,81.02
2019-05-10T23:43:38.195Z,81.00
2019-05-10T23:46:05.404Z,81.37
2019-05-10T23:48:31.549Z,81.29
2019-05-10T23:50:57.799Z,80.98
2019-05-10T23:53:24.099Z,80.85
2019-05-10T23:55:50.375Z,80.90
2019-05-10T23:58:16.678Z,80.86
